Bullville, NY (10915)

3:18 AM EDT on September 03, 2015 (GMT -0400)
N2KLC / N2RJV Stone Schoolhouse Road (Town of Wallkill) | | Change Station
CLOSE
Current Station
Personal Weather Station
Location: Bloomingburg, NY
Elevation: 547 ft
Nearby Weather Stations

Elev 547 ft 41.56 °N, 74.41 °W | Updated 19 seconds ago

Clear
Clear
68.2 °F
Feels Like 68.2 °F
N
0.0
Wind Variable Wind from West
Gusts 0.0 mph

Today
High -- | Low -- °F
--% Chance of Precip.
Yesterday
High -- | Low -- °F
Precip. -- in
6:25 AM 7:27 PM
Waning Gibbous, 73% visible
Pressure 29.88 in
Visibility 4.0 miles
Clouds Clear
Dew Point 41 °F
Humidity 37%
Rainfall 0.00 in
Snow Depth Not available.
UV 0 out of 12
Pollen 10.10 out of 12
Air Quality Not available.
Flu Activity Not available.
METAR KMGJ 030654Z AUTO 00000KT 4SM BR CLR 17/17 A2988 RMK AO2 RAB07E21 SLP117 P0000 T01720167 TSNO $
Pressure 29.88 in
Visibility 4.0 miles
Clouds Clear
Dew Point 41 °F
Humidity 37%
Rainfall 0.00 in
Snow Depth Not available.
UV 0 out of 12
Pollen 10.10 out of 12
Air Quality Not available.
Flu Activity Not available.
METAR KMGJ 030654Z AUTO 00000KT 4SM BR CLR 17/17 A2988 RMK AO2 RAB07E21 SLP117 P0000 T01720167 TSNO $

10-Day Weather Forecast

×

Almanac

Astronomy

Sep. 03, 2015 Rise Set
Actual Time
Civil Twilight
Nautical Twilight
Astronomical Twilight
Moon
Length of Visible Light
Length of Day
Tomorrow will be .
, % of the Moon is Illuminated

Today's Extremes

State Highs State Lows

Community

WunderPhotos

Upload Photos

1,851,915 photos uploaded!

WunderBlogs® & News

Nearby

Air Quality

  Air Quality AQ Index Pollutant
Not available.

Snow Depth

Station Depth Elevation

Earthquake Activity

City Distance Mag. Time & Date
Minimum magnitude displayed is 2.5.

Coastal Water Temperatures

Place Temperature

Stations

Nearby Weather Stations

Station Location Temp. Windchill Dew Point Humidity Wind Precip. Elev Updated Type